sensor_id;sensor_type;location;lat;lon;timestamp;pressure;altitude;pressure_sealevel;temperature;humidity
62712;BME280;48772;55.586;37.730;2023-02-17T00:03:36;100062.25;;;-6.90;100.00
62712;BME280;48772;55.586;37.730;2023-02-17T00:06:08;100071.75;;;-6.82;100.00
62712;BME280;48772;55.586;37.730;2023-02-17T00:08:34;100127.72;;;-6.42;100.00
62712;BME280;48772;55.586;37.730;2023-02-17T00:11:00;100078.53;;;-6.58;100.00
62712;BME280;48772;55.586;37.730;2023-02-17T00:13:26;100128.53;;;-6.31;100.00
62712;BME280;48772;55.586;37.730;2023-02-17T00:15:52;100082.84;;;-6.53;100.00
62712;BME280;48772;55.586;37.730;2023-02-17T00:18:18;100120.72;;;-6.25;100.00
62712;BME280;48772;55.586;37.730;2023-02-17T00:20:44;100128.50;;;-6.20;100.00
62712;BME280;48772;55.586;37.730;2023-02-17T00:23:09;100066.38;;;-6.52;100.00
62712;BME280;48772;55.586;37.730;2023-02-17T00:25:37;100069.84;;;-6.47;100.00
62712;BME280;48772;55.586;37.730;2023-02-17T00:28:03;100087.03;;;-6.34;100.00
62712;BME280;48772;55.586;37.730;2023-02-17T00:30:28;100115.47;;;-6.17;100.00
62712;BME280;48772;55.586;37.730;2023-02-17T00:32:54;100110.25;;;-6.11;100.00
62712;BME280;48772;55.586;37.730;2023-02-17T00:35:20;100113.72;;;-6.11;100.00
62712;BME280;48772;55.586;37.730;2023-02-17T00:37:46;100106.78;;;-6.09;100.00
62712;BME280;48772;55.586;37.730;2023-02-17T00:40:13;100073.16;;;-6.24;100.00
62712;BME280;48772;55.586;37.730;2023-02-17T00:42:39;100076.59;;;-6.22;100.00
62712;BME280;48772;55.586;37.730;2023-02-17T00:45:05;100088.59;;;-6.07;100.00
62712;BME280;48772;55.586;37.730;2023-02-17T00:47:32;100093.75;;;-6.03;100.00
62712;BME280;48772;55.586;37.730;2023-02-17T00:49:58;100107.53;;;-5.92;100.00
62712;BME280;48772;55.586;37.730;2023-02-17T00:52:26;100092.00;;;-5.99;100.00
62712;BME280;48772;55.586;37.730;2023-02-17T00:54:51;100034.31;;;-6.34;100.00
62712;BME280;48772;55.586;37.730;2023-02-17T00:57:17;100104.06;;;-5.91;100.00
62712;BME280;48772;55.586;37.730;2023-02-17T00:59:43;100057.53;;;-6.15;100.00
62712;BME280;48772;55.586;37.730;2023-02-17T01:02:09;100085.09;;;-5.99;100.00
62712;BME280;48772;55.586;37.730;2023-02-17T01:04:35;100097.16;;;-5.92;100.00
62712;BME280;48772;55.586;37.730;2023-02-17T01:07:01;100042.84;;;-6.19;100.00
62712;BME280;48772;55.586;37.730;2023-02-17T01:09:27;100035.91;;;-6.17;100.00
62712;BME280;48772;55.586;37.730;2023-02-17T01:11:52;100054.03;;;-6.09;100.00
62712;BME280;48772;55.586;37.730;2023-02-17T01:14:18;100097.09;;;-5.86;100.00
62712;BME280;48772;55.586;37.730;2023-02-17T01:16:47;100057.47;;;-6.09;100.00
62712;BME280;48772;55.586;37.730;2023-02-17T01:19:16;100094.56;;;-5.93;100.00
62712;BME280;48772;55.586;37.730;2023-02-17T01:21:45;100029.16;;;-6.39;100.00
62712;BME280;48772;55.586;37.730;2023-02-17T01:24:12;100063.63;;;-6.23;100.00
62712;BME280;48772;55.586;37.730;2023-02-17T01:26:39;100096.41;;;-6.10;100.00
62712;BME280;48772;55.586;37.730;2023-02-17T01:29:06;100088.69;;;-6.18;100.00
62712;BME280;48772;55.586;37.730;2023-02-17T01:31:32;100106.84;;;-6.16;100.00
62712;BME280;48772;55.586;37.730;2023-02-17T01:34:00;100079.28;;;-6.35;100.00
62712;BME280;48772;55.586;37.730;2023-02-17T01:36:27;100062.06;;;-6.48;100.00
62712;BME280;48772;55.586;37.730;2023-02-17T01:38:53;100106.88;;;-6.27;100.00
62712;BME280;48772;55.586;37.730;2023-02-17T01:41:21;100093.09;;;-6.32;100.00
62712;BME280;48772;55.586;37.730;2023-02-17T01:44:09;100102.59;;;-6.34;100.00
62712;BME280;48772;55.586;37.730;2023-02-17T01:46:37;100049.22;;;-6.72;100.00
62712;BME280;48772;55.586;37.730;2023-02-17T01:49:27;100104.41;;;-6.46;100.00
62712;BME280;48772;55.586;37.730;2023-02-17T01:52:11;100114.75;;;-6.43;100.00
62712;BME280;48772;55.586;37.730;2023-02-17T01:54:48;100109.59;;;-6.45;100.00
62712;BME280;48772;55.586;37.730;2023-02-17T01:57:16;100113.06;;;-6.46;100.00
62712;BME280;48772;55.586;37.730;2023-02-17T01:59:44;100096.69;;;-6.58;100.00
62712;BME280;48772;55.586;37.730;2023-02-17T02:02:11;100109.63;;;-6.52;100.00
62712;BME280;48772;55.586;37.730;2023-02-17T02:04:38;100116.53;;;-6.50;100.00
62712;BME280;48772;55.586;37.730;2023-02-17T02:07:13;100100.97;;;-6.53;100.00
62712;BME280;48772;55.586;37.730;2023-02-17T02:09:46;100120.00;;;-6.51;100.00
62712;BME280;48772;55.586;37.730;2023-02-17T02:14:48;100105.34;;;-6.56;100.00
62712;BME280;48772;55.586;37.730;2023-02-17T02:34:15;100107.84;;;-6.40;100.00
62712;BME280;48772;55.586;37.730;2023-02-17T02:36:58;100095.78;;;-6.51;100.00
62712;BME280;48772;55.586;37.730;2023-02-17T02:39:30;100099.25;;;-6.48;100.00
62712;BME280;48772;55.586;37.730;2023-02-17T02:42:01;100108.75;;;-6.45;100.00
62712;BME280;48772;55.586;37.730;2023-02-17T02:44:29;100108.75;;;-6.48;100.00
62712;BME280;48772;55.586;37.730;2023-02-17T02:46:57;100100.97;;;-6.51;100.00
62712;BME280;48772;55.586;37.730;2023-02-17T02:49:23;100107.88;;;-6.49;100.00
62712;BME280;48772;55.586;37.730;2023-02-17T02:54:55;100082.91;;;-6.65;100.00
62712;BME280;48772;55.586;37.730;2023-02-17T02:58:10;100113.06;;;-6.49;100.00
62712;BME280;48772;55.586;37.730;2023-02-17T03:00:40;100124.31;;;-6.53;100.00
62712;BME280;48772;55.586;37.730;2023-02-17T03:03:16;100103.63;;;-6.60;100.00
62712;BME280;48772;55.586;37.730;2023-02-17T03:05:58;100112.25;;;-6.61;100.00
62712;BME280;48772;55.586;37.730;2023-02-17T03:08:35;100116.63;;;-6.68;100.00
62712;BME280;48772;55.586;37.730;2023-02-17T03:11:03;100125.28;;;-6.72;100.00
62712;BME280;48772;55.586;37.730;2023-02-17T03:13:35;100116.66;;;-6.77;100.00
62712;BME280;48772;55.586;37.730;2023-02-17T03:16:07;100118.38;;;-6.79;100.00
62712;BME280;48772;55.586;37.730;2023-02-17T03:18:34;100093.41;;;-6.92;100.00
62712;BME280;48772;55.586;37.730;2023-02-17T03:21:05;100054.63;;;-7.19;100.00
62712;BME280;48772;55.586;37.730;2023-02-17T03:23:34;100043.44;;;-7.30;100.00
62712;BME280;48772;55.586;37.730;2023-02-17T03:26:00;100061.50;;;-7.14;100.00
62712;BME280;48772;55.586;37.730;2023-02-17T03:28:26;100118.41;;;-6.85;100.00
62712;BME280;48772;55.586;37.730;2023-02-17T03:30:51;100070.16;;;-7.15;100.00
62712;BME280;48772;55.586;37.730;2023-02-17T03:33:18;100103.78;;;-6.98;100.00
62712;BME280;48772;55.586;37.730;2023-02-17T03:35:43;100122.75;;;-6.90;100.00
62712;BME280;48772;55.586;37.730;2023-02-17T03:38:10;100100.34;;;-7.03;100.00
62712;BME280;48772;55.586;37.730;2023-02-17T03:40:35;100103.78;;;-7.01;100.00
62712;BME280;48772;55.586;37.730;2023-02-17T03:43:01;100071.91;;;-7.24;100.00
62712;BME280;48772;55.586;37.730;2023-02-17T03:45:27;100074.50;;;-7.23;100.00
62712;BME280;48772;55.586;37.730;2023-02-17T03:47:53;100082.22;;;-7.15;100.00
62712;BME280;48772;55.586;37.730;2023-02-17T03:50:19;100015.88;;;-7.54;100.00
62712;BME280;48772;55.586;37.730;2023-02-17T03:52:45;100113.25;;;-6.97;100.00
62712;BME280;48772;55.586;37.730;2023-02-17T03:55:11;100061.56;;;-7.27;100.00
62712;BME280;48772;55.586;37.730;2023-02-17T03:57:37;100058.97;;;-7.26;100.00
62712;BME280;48772;55.586;37.730;2023-02-17T04:00:05;100065.84;;;-7.19;100.00
62712;BME280;48772;55.586;37.730;2023-02-17T04:02:38;100101.19;;;-6.98;100.00
62712;BME280;48772;55.586;37.730;2023-02-17T04:05:04;100105.47;;;-6.86;100.00
62712;BME280;48772;55.586;37.730;2023-02-17T04:07:30;100100.25;;;-6.85;100.00
62712;BME280;48772;55.586;37.730;2023-02-17T04:09:56;100119.25;;;-6.75;100.00
62712;BME280;48772;55.586;37.730;2023-02-17T04:12:22;100120.09;;;-6.72;100.00
62712;BME280;48772;55.586;37.730;2023-02-17T04:14:48;100071.81;;;-7.00;100.00
62712;BME280;48772;55.586;37.730;2023-02-17T04:17:14;100124.41;;;-6.69;100.00
62712;BME280;48772;55.586;37.730;2023-02-17T04:19:39;100112.31;;;-6.69;100.00
62712;BME280;48772;55.586;37.730;2023-02-17T04:22:05;100107.13;;;-6.67;100.00
62712;BME280;48772;55.586;37.730;2023-02-17T04:24:36;100092.44;;;-6.70;100.00
62712;BME280;48772;55.586;37.730;2023-02-17T04:27:03;100084.59;;;-6.61;100.00
62712;BME280;48772;55.586;37.730;2023-02-17T04:29:29;100092.31;;;-6.47;100.00
62712;BME280;48772;55.586;37.730;2023-02-17T04:31:55;100076.72;;;-6.41;100.00
62712;BME280;48772;55.586;37.730;2023-02-17T04:34:21;100080.13;;;-6.32;100.00
62712;BME280;48772;55.586;37.730;2023-02-17T04:36:47;100079.25;;;-6.34;100.00
62712;BME280;48772;55.586;37.730;2023-02-17T04:39:12;100070.63;;;-6.36;100.00
62712;BME280;48772;55.586;37.730;2023-02-17T04:41:38;100106.84;;;-6.15;100.00
62712;BME280;48772;55.586;37.730;2023-02-17T04:44:04;100098.19;;;-6.17;100.00
62712;BME280;48772;55.586;37.730;2023-02-17T04:46:30;100106.94;;;-6.30;100.00
62712;BME280;48772;55.586;37.730;2023-02-17T04:48:56;100104.38;;;-6.43;100.00
62712;BME280;48772;55.586;37.730;2023-02-17T04:51:21;100055.34;;;-6.81;100.00
62712;BME280;48772;55.586;37.730;2023-02-17T04:53:47;100042.41;;;-6.96;100.00
62712;BME280;48772;55.586;37.730;2023-02-17T04:56:13;100123.50;;;-6.56;100.00
62712;BME280;48772;55.586;37.730;2023-02-17T04:58:39;100081.22;;;-6.72;100.00
62712;BME280;48772;55.586;37.730;2023-02-17T05:01:05;100130.41;;;-6.57;100.00
62712;BME280;48772;55.586;37.730;2023-02-17T05:03:30;100107.06;;;-6.57;100.00
62712;BME280;48772;55.586;37.730;2023-02-17T05:05:56;100120.91;;;-6.56;100.00
62712;BME280;48772;55.586;37.730;2023-02-17T05:08:22;100107.94;;;-6.55;100.00
62712;BME280;48772;55.586;37.730;2023-02-17T05:10:51;100117.41;;;-6.48;100.00
62712;BME280;48772;55.586;37.730;2023-02-17T05:13:17;100083.78;;;-6.66;100.00
62712;BME280;48772;55.586;37.730;2023-02-17T05:15:44;100120.81;;;-6.40;100.00
62712;BME280;48772;55.586;37.730;2023-02-17T05:18:11;100098.34;;;-6.42;100.00
62712;BME280;48772;55.586;37.730;2023-02-17T05:20:37;100096.59;;;-6.37;100.00
62712;BME280;48772;55.586;37.730;2023-02-17T05:23:03;100112.03;;;-6.21;100.00
62712;BME280;48772;55.586;37.730;2023-02-17T05:25:30;100130.13;;;-6.09;100.00
62712;BME280;48772;55.586;37.730;2023-02-17T05:27:55;100126.69;;;-6.11;100.00
62712;BME280;48772;55.586;37.730;2023-02-17T05:30:21;100068.03;;;-6.36;100.00
62712;BME280;48772;55.586;37.730;2023-02-17T05:32:47;100130.06;;;-5.97;100.00
62712;BME280;48772;55.586;37.730;2023-02-17T05:35:14;100092.97;;;-6.12;100.00
62712;BME280;48772;55.586;37.730;2023-02-17T05:37:40;100132.56;;;-5.83;100.00
62712;BME280;48772;55.586;37.730;2023-02-17T05:40:07;100117.00;;;-5.85;100.00
62712;BME280;48772;55.586;37.730;2023-02-17T05:42:33;100133.31;;;-5.71;100.00
62712;BME280;48772;55.586;37.730;2023-02-17T05:44:59;100139.34;;;-5.72;100.00
62712;BME280;48772;55.586;37.730;2023-02-17T05:47:25;100105.75;;;-5.85;100.00
62712;BME280;48772;55.586;37.730;2023-02-17T05:49:51;100116.03;;;-5.78;100.00
62712;BME280;48772;55.586;37.730;2023-02-17T05:52:16;100123.03;;;-5.83;100.00
62712;BME280;48772;55.586;37.730;2023-02-17T05:54:43;100122.19;;;-5.85;100.00
62712;BME280;48772;55.586;37.730;2023-02-17T05:57:09;100110.94;;;-5.87;100.00
62712;BME280;48772;55.586;37.730;2023-02-17T05:59:34;100117.00;;;-5.83;100.00
62712;BME280;48772;55.586;37.730;2023-02-17T06:02:00;100130.69;;;-5.69;100.00
62712;BME280;48772;55.586;37.730;2023-02-17T06:04:26;100076.41;;;-5.96;100.00
62712;BME280;48772;55.586;37.730;2023-02-17T06:06:52;100129.56;;;-5.40;100.00
62712;BME280;48772;55.586;37.730;2023-02-17T06:09:18;100100.06;;;-5.36;100.00
62712;BME280;48772;55.586;37.730;2023-02-17T06:11:43;100120.31;;;-4.82;100.00
62712;BME280;48772;55.586;37.730;2023-02-17T06:14:09;100103.84;;;-4.84;100.00
62712;BME280;48772;55.586;37.730;2023-02-17T06:16:35;100070.88;;;-4.80;100.00
62712;BME280;48772;55.586;37.730;2023-02-17T06:19:01;100112.13;;;-4.53;100.00
62712;BME280;48772;55.586;37.730;2023-02-17T06:21:30;100132.53;;;-4.22;100.00
62712;BME280;48772;55.586;37.730;2023-02-17T06:23:56;100106.72;;;-4.37;100.00
62712;BME280;48772;55.586;37.730;2023-02-17T06:26:22;100078.34;;;-4.55;100.00
62712;BME280;48772;55.586;37.730;2023-02-17T06:28:48;100096.50;;;-4.52;100.00
62712;BME280;48772;55.586;37.730;2023-02-17T06:31:14;100071.56;;;-4.65;100.00
62712;BME280;48772;55.586;37.730;2023-02-17T06:33:40;100070.72;;;-4.70;100.00
62712;BME280;48772;55.586;37.730;2023-02-17T06:36:06;100119.69;;;-4.34;100.00
62712;BME280;48772;55.586;37.730;2023-02-17T06:38:32;100087.03;;;-4.56;100.00
62712;BME280;48772;55.586;37.730;2023-02-17T06:40:58;100134.28;;;-4.21;100.00
62712;BME280;48772;55.586;37.730;2023-02-17T06:43:24;100095.88;;;-4.07;100.00
62712;BME280;48772;55.586;37.730;2023-02-17T06:45:51;100127.34;;;-3.63;100.00
62712;BME280;48772;55.586;37.730;2023-02-17T06:48:17;100116.69;;;-3.49;100.00
62712;BME280;48772;55.586;37.730;2023-02-17T06:50:43;100101.09;;;-3.54;100.00
62712;BME280;48772;55.586;37.730;2023-02-17T06:53:09;100073.47;;;-3.64;100.00
62712;BME280;48772;55.586;37.730;2023-02-17T06:55:34;100101.56;;;-3.30;100.00
62712;BME280;48772;55.586;37.730;2023-02-17T06:58:02;100119.09;;;-2.91;100.00
62712;BME280;48772;55.586;37.730;2023-02-17T07:00:27;100101.03;;;-2.56;100.00
62712;BME280;48772;55.586;37.730;2023-02-17T07:02:53;100112.31;;;-2.16;100.00
62712;BME280;48772;55.586;37.730;2023-02-17T07:05:19;100079.59;;;-1.94;100.00
62712;BME280;48772;55.586;37.730;2023-02-17T07:07:45;100107.59;;;-1.99;100.00
62712;BME280;48772;55.586;37.730;2023-02-17T07:10:11;100097.53;;;-2.17;100.00
62712;BME280;48772;55.586;37.730;2023-02-17T07:12:38;100102.09;;;-2.25;100.00
62712;BME280;48772;55.586;37.730;2023-02-17T07:15:04;100101.25;;;-2.27;100.00
62712;BME280;48772;55.586;37.730;2023-02-17T07:17:30;100106.69;;;-2.36;100.00
62712;BME280;48772;55.586;37.730;2023-02-17T07:19:56;100112.41;;;-2.19;100.00
62712;BME280;48772;55.586;37.730;2023-02-17T07:22:22;100110.53;;;-1.41;100.00
62712;BME280;48772;55.586;37.730;2023-02-17T07:24:50;100098.72;;;-0.29;100.00
62712;BME280;48772;55.586;37.730;2023-02-17T07:27:16;100092.97;;;0.69;100.00
62712;BME280;48772;55.586;37.730;2023-02-17T07:29:42;100086.00;;;1.41;100.00
62712;BME280;48772;55.586;37.730;2023-02-17T07:32:08;100062.28;;;2.10;100.00
62712;BME280;48772;55.586;37.730;2023-02-17T07:34:34;100064.44;;;2.64;100.00
62712;BME280;48772;55.586;37.730;2023-02-17T07:36:59;100081.88;;;1.80;100.00
62712;BME280;48772;55.586;37.730;2023-02-17T07:39:34;100085.50;;;0.83;100.00
62712;BME280;48772;55.586;37.730;2023-02-17T07:42:00;100086.25;;;0.07;100.00
62712;BME280;48772;55.586;37.730;2023-02-17T07:44:27;100091.47;;;-0.50;100.00
62712;BME280;48772;55.586;37.730;2023-02-17T07:46:54;100047.22;;;-1.20;100.00
62712;BME280;48772;55.586;37.730;2023-02-17T07:49:19;100042.25;;;-1.63;100.00
62712;BME280;48772;55.586;37.730;2023-02-17T07:51:45;100076.69;;;-1.81;100.00
62712;BME280;48772;55.586;37.730;2023-02-17T07:54:11;100084.69;;;-1.88;100.00
62712;BME280;48772;55.586;37.730;2023-02-17T07:56:39;100082.06;;;-1.88;100.00
62712;BME280;48772;55.586;37.730;2023-02-17T07:59:09;100085.63;;;-1.91;100.00
62712;BME280;48772;55.586;37.730;2023-02-17T08:01:35;100074.50;;;-1.99;100.00
62712;BME280;48772;55.586;37.730;2023-02-17T08:04:01;100086.00;;;-2.07;100.00
62712;BME280;48772;55.586;37.730;2023-02-17T08:06:27;100063.66;;;-2.20;100.00
62712;BME280;48772;55.586;37.730;2023-02-17T08:08:53;100086.97;;;-2.11;100.00
62712;BME280;48772;55.586;37.730;2023-02-17T08:11:39;100093.88;;;-2.09;100.00
62712;BME280;48772;55.586;37.730;2023-02-17T08:14:26;100071.38;;;-2.14;100.00
62712;BME280;48772;55.586;37.730;2023-02-17T08:16:53;100086.13;;;-2.13;100.00
62712;BME280;48772;55.586;37.730;2023-02-17T08:19:20;100018.06;;;-2.44;100.00
62712;BME280;48772;55.586;37.730;2023-02-17T08:21:48;100022.38;;;-2.41;100.00
62712;BME280;48772;55.586;37.730;2023-02-17T08:24:14;100040.69;;;-2.43;100.00
62712;BME280;48772;55.586;37.730;2023-02-17T08:26:47;100037.25;;;-2.46;100.00
62712;BME280;48772;55.586;37.730;2023-02-17T08:29:15;100090.50;;;-2.14;100.00
62712;BME280;48772;55.586;37.730;2023-02-17T08:31:42;100027.66;;;-2.44;100.00
62712;BME280;48772;55.586;37.730;2023-02-17T08:34:09;100074.88;;;-2.15;100.00
62712;BME280;48772;55.586;37.730;2023-02-17T08:36:36;100083.03;;;-2.29;100.00
62712;BME280;48772;55.586;37.730;2023-02-17T08:39:03;100092.28;;;-2.16;100.00
62712;BME280;48772;55.586;37.730;2023-02-17T08:41:35;100077.66;;;-2.23;100.00
62712;BME280;48772;55.586;37.730;2023-02-17T08:44:07;100084.56;;;-2.22;100.00
62712;BME280;48772;55.586;37.730;2023-02-17T08:46:34;100087.13;;;-2.19;100.00
62712;BME280;48772;55.586;37.730;2023-02-17T08:49:01;100088.06;;;-2.21;100.00
62712;BME280;48772;55.586;37.730;2023-02-17T08:51:27;100082.06;;;-2.25;100.00
62712;BME280;48772;55.586;37.730;2023-02-17T08:53:54;100003.22;;;-2.80;100.00
62712;BME280;48772;55.586;37.730;2023-02-17T08:56:22;100055.66;;;-2.51;100.00
62712;BME280;48772;55.586;37.730;2023-02-17T08:58:49;100090.00;;;-2.29;100.00
62712;BME280;48772;55.586;37.730;2023-02-17T09:01:16;100062.50;;;-2.45;100.00
62712;BME280;48772;55.586;37.730;2023-02-17T09:03:46;100083.03;;;-2.29;100.00
62712;BME280;48772;55.586;37.730;2023-02-17T09:06:12;100071.59;;;-2.23;100.00
62712;BME280;48772;55.586;37.730;2023-02-17T09:08:39;100070.47;;;-2.13;100.00
62712;BME280;48772;55.586;37.730;2023-02-17T09:11:06;100059.41;;;-2.24;100.00
62712;BME280;48772;55.586;37.730;2023-02-17T09:13:33;100030.63;;;-2.23;100.00
62712;BME280;48772;55.586;37.730;2023-02-17T09:15:59;100055.75;;;-2.17;100.00
62712;BME280;48772;55.586;37.730;2023-02-17T09:18:25;100069.34;;;-2.02;100.00
62712;BME280;48772;55.586;37.730;2023-02-17T09:20:52;100063.22;;;-2.02;100.00
62712;BME280;48772;55.586;37.730;2023-02-17T09:23:18;100014.94;;;-2.21;100.00
62712;BME280;48772;55.586;37.730;2023-02-17T09:25:44;100071.97;;;-2.03;100.00
62712;BME280;48772;55.586;37.730;2023-02-17T09:28:11;100030.78;;;-2.29;100.00
62712;BME280;48772;55.586;37.730;2023-02-17T09:30:39;100064.44;;;-2.15;100.00
62712;BME280;48772;55.586;37.730;2023-02-17T09:33:04;100053.19;;;-2.20;100.00
62712;BME280;48772;55.586;37.730;2023-02-17T09:35:31;100068.59;;;-2.07;100.00
62712;BME280;48772;55.586;37.730;2023-02-17T09:37:58;100061.59;;;-2.06;100.00
62712;BME280;48772;55.586;37.730;2023-02-17T09:40:36;100040.13;;;-2.19;100.00
62712;BME280;48772;55.586;37.730;2023-02-17T09:43:03;100053.78;;;-2.08;100.00
62712;BME280;48772;55.586;37.730;2023-02-17T09:45:34;100033.75;;;-2.07;100.00
62712;BME280;48772;55.586;37.730;2023-02-17T09:48:07;100029.31;;;-2.04;100.00
62712;BME280;48772;55.586;37.730;2023-02-17T09:53:18;100056.44;;;-2.09;100.00
62712;BME280;48772;55.586;37.730;2023-02-17T09:55:52;100057.38;;;-2.12;100.00
62712;BME280;48772;55.586;37.730;2023-02-17T09:58:24;100007.59;;;-2.42;100.00
62712;BME280;48772;55.586;37.730;2023-02-17T10:00:56;99998.25;;;-2.52;100.00
62712;BME280;48772;55.586;37.730;2023-02-17T10:08:29;100012.06;;;-2.47;100.00
62712;BME280;48772;55.586;37.730;2023-02-17T10:13:43;100031.16;;;-2.45;100.00
62712;BME280;48772;55.586;37.730;2023-02-17T10:16:17;100042.97;;;-2.29;100.00
62712;BME280;48772;55.586;37.730;2023-02-17T10:18:53;99987.00;;;-2.56;100.00
62712;BME280;48772;55.586;37.730;2023-02-17T10:21:36;100040.41;;;-2.31;100.00
62712;BME280;48772;55.586;37.730;2023-02-17T10:24:03;100033.34;;;-2.27;100.00
62712;BME280;48772;55.586;37.730;2023-02-17T10:29:37;100027.31;;;-2.29;100.00
62712;BME280;48772;55.586;37.730;2023-02-17T10:35:29;100023.25;;;-2.04;100.00
62712;BME280;48772;55.586;37.730;2023-02-17T10:37:42;100029.88;;;-1.91;100.00
62712;BME280;48772;55.586;37.730;2023-02-17T10:40:18;100006.50;;;-2.32;100.00
62712;BME280;48772;55.586;37.730;2023-02-17T10:42:45;100026.41;;;-2.28;100.00
62712;BME280;48772;55.586;37.730;2023-02-17T10:47:45;100017.16;;;-2.41;100.00
62712;BME280;48772;55.586;37.730;2023-02-17T10:50:19;100014.53;;;-2.41;100.00
62712;BME280;48772;55.586;37.730;2023-02-17T10:52:46;100003.91;;;-2.34;100.00
62712;BME280;48772;55.586;37.730;2023-02-17T10:57:49;100003.13;;;-2.37;100.00
62712;BME280;48772;55.586;37.730;2023-02-17T11:00:17;99997.75;;;-2.31;100.00
62712;BME280;48772;55.586;37.730;2023-02-17T11:02:45;99983.94;;;-2.35;100.00
62712;BME280;48772;55.586;37.730;2023-02-17T11:05:29;99998.41;;;-2.22;100.00
62712;BME280;48772;55.586;37.730;2023-02-17T11:08:03;100004.56;;;-2.24;100.00
62712;BME280;48772;55.586;37.730;2023-02-17T11:12:59;99999.84;;;-2.45;100.00
62712;BME280;48772;55.586;37.730;2023-02-17T11:15:34;99976.56;;;-2.56;100.00
62712;BME280;48772;55.586;37.730;2023-02-17T11:18:08;99972.47;;;-2.67;100.00
62712;BME280;48772;55.586;37.730;2023-02-17T11:20:35;99997.97;;;-2.40;100.00
62712;BME280;48772;55.586;37.730;2023-02-17T11:23:06;99993.03;;;-2.52;100.00
62712;BME280;48772;55.586;37.730;2023-02-17T11:25:35;99986.41;;;-2.68;100.00
62712;BME280;48772;55.586;37.730;2023-02-17T11:28:11;99997.66;;;-2.63;100.00
62712;BME280;48772;55.586;37.730;2023-02-17T11:30:38;99996.03;;;-2.69;100.00
62712;BME280;48772;55.586;37.730;2023-02-17T11:33:12;100005.59;;;-2.69;100.00
62712;BME280;48772;55.586;37.730;2023-02-17T11:40:39;99957.50;;;-2.97;100.00
62712;BME280;48772;55.586;37.730;2023-02-17T11:43:05;99990.88;;;-2.72;100.00
62712;BME280;48772;55.586;37.730;2023-02-17T11:51:16;99981.22;;;-2.68;100.00
62712;BME280;48772;55.586;37.730;2023-02-17T11:56:22;99955.31;;;-2.77;100.00
62712;BME280;48772;55.586;37.730;2023-02-17T12:01:37;99977.63;;;-2.64;100.00
62712;BME280;48772;55.586;37.730;2023-02-17T12:15:06;99894.91;;;-2.97;100.00
62712;BME280;48772;55.586;37.730;2023-02-17T12:26:16;99969.22;;;-2.77;100.00
62712;BME280;48772;55.586;37.730;2023-02-17T12:31:59;99961.13;;;-2.65;100.00
62712;BME280;48772;55.586;37.730;2023-02-17T12:34:32;99905.19;;;-2.91;100.00
62712;BME280;48772;55.586;37.730;2023-02-17T12:37:02;99908.44;;;-2.80;100.00
62712;BME280;48772;55.586;37.730;2023-02-17T12:40:03;99970.50;;;-2.56;100.00
62712;BME280;48772;55.586;37.730;2023-02-17T12:42:40;99940.59;;;-2.80;100.00
62712;BME280;48772;55.586;37.730;2023-02-17T12:45:20;99958.81;;;-2.78;100.00
62712;BME280;48772;55.586;37.730;2023-02-17T12:47:56;99961.72;;;-2.92;100.00
62712;BME280;48772;55.586;37.730;2023-02-17T12:50:37;99965.94;;;-2.86;100.00
62712;BME280;48772;55.586;37.730;2023-02-17T12:53:19;99964.31;;;-2.92;100.00
62712;BME280;48772;55.586;37.730;2023-02-17T12:55:56;99961.63;;;-2.87;100.00
62712;BME280;48772;55.586;37.730;2023-02-17T12:58:29;99962.38;;;-2.82;100.00
62712;BME280;48772;55.586;37.730;2023-02-17T13:01:02;99964.03;;;-2.78;100.00
62712;BME280;48772;55.586;37.730;2023-02-17T13:03:33;99946.88;;;-2.88;100.00
62712;BME280;48772;55.586;37.730;2023-02-17T13:06:28;99945.00;;;-2.83;100.00
62712;BME280;48772;55.586;37.730;2023-02-17T13:15:32;99929.69;;;-2.98;100.00
62712;BME280;48772;55.586;37.730;2023-02-17T13:18:04;99946.19;;;-2.96;100.00
62712;BME280;48772;55.586;37.730;2023-02-17T13:20:41;99951.44;;;-2.98;100.00
62712;BME280;48772;55.586;37.730;2023-02-17T13:23:12;99925.75;;;-3.16;100.00
62712;BME280;48772;55.586;37.730;2023-02-17T13:25:39;99940.22;;;-3.03;100.00
62712;BME280;48772;55.586;37.730;2023-02-17T13:28:34;99909.56;;;-3.31;100.00
62712;BME280;48772;55.586;37.730;2023-02-17T13:31:10;99936.31;;;-3.23;100.00
62712;BME280;48772;55.586;37.730;2023-02-17T13:34:07;99943.38;;;-3.28;100.00
62712;BME280;48772;55.586;37.730;2023-02-17T13:36:35;99952.88;;;-3.26;100.00
62712;BME280;48772;55.586;37.730;2023-02-17T13:39:04;99921.88;;;-3.39;100.00
62712;BME280;48772;55.586;37.730;2023-02-17T13:41:53;99942.69;;;-3.36;100.00
62712;BME280;48772;55.586;37.730;2023-02-17T13:44:29;99947.97;;;-3.41;100.00
62712;BME280;48772;55.586;37.730;2023-02-17T13:47:01;99909.06;;;-3.50;100.00
62712;BME280;48772;55.586;37.730;2023-02-17T13:49:29;99928.88;;;-3.42;100.00
62712;BME280;48772;55.586;37.730;2023-02-17T13:52:17;99923.66;;;-3.42;100.00
62712;BME280;48772;55.586;37.730;2023-02-17T13:55:00;99938.44;;;-3.40;100.00
62712;BME280;48772;55.586;37.730;2023-02-17T13:57:35;99928.13;;;-3.47;100.00
62712;BME280;48772;55.586;37.730;2023-02-17T14:00:22;99926.47;;;-3.51;100.00
62712;BME280;48772;55.586;37.730;2023-02-17T14:03:04;99922.06;;;-3.49;100.00
62712;BME280;48772;55.586;37.730;2023-02-17T14:08:01;99923.81;;;-3.49;100.00
62712;BME280;48772;55.586;37.730;2023-02-17T14:10:29;99906.66;;;-3.61;100.00
62712;BME280;48772;55.586;37.730;2023-02-17T14:12:55;99912.78;;;-3.62;100.00
62712;BME280;48772;55.586;37.730;2023-02-17T14:15:27;99907.59;;;-3.63;100.00
62712;BME280;48772;55.586;37.730;2023-02-17T14:17:53;99907.63;;;-3.65;100.00
62712;BME280;48772;55.586;37.730;2023-02-17T14:20:46;99915.50;;;-3.68;100.00